Time;durP1;ratioP1;P1;durP2;ratioP2;P2;SDS_P1;SDS_P2;PMS_P1;PMS_P2;Temp;Humidity;BMP_temperature;BMP_pressure;BME280_temperature;BME280_humidity;BME280_pressure;Samples;Min_cycle;Max_cycle;Signal;HPM_P1;HPM_P2
2021/09/09 00:01:19;;;;;;;27.58;21.52;;;;;;;17.18;78.19;101208.19;5063331;28;20140;-62
2021/09/09 00:03:44;;;;;;;31.77;22.65;;;;;;;17.16;77.93;101210.88;5063481;28;20882;-62
2021/09/09 00:06:10;;;;;;;29.40;22.77;;;;;;;17.13;77.95;101206.50;5060565;28;20048;-62
2021/09/09 00:08:35;;;;;;;27.83;22.02;;;;;;;17.10;77.85;101206.56;5061742;28;20029;-62
2021/09/09 00:11:01;;;;;;;27.48;22.00;;;;;;;17.07;78.08;101205.75;5060805;28;20083;-62
2021/09/09 00:13:26;;;;;;;30.52;22.95;;;;;;;17.03;77.78;101197.03;5059135;28;20136;-62
2021/09/09 00:15:52;;;;;;;26.92;21.27;;;;;;;17.01;78.07;101197.94;5061686;28;20039;-62
2021/09/09 00:18:17;;;;;;;30.20;22.25;;;;;;;16.97;78.36;101199.81;5063485;28;20096;-63
2021/09/09 00:20:43;;;;;;;27.90;21.67;;;;;;;16.93;78.08;101192.81;5062817;28;20032;-62
2021/09/09 00:23:09;;;;;;;31.05;22.45;;;;;;;16.89;78.36;101189.34;5062312;28;20111;-62
2021/09/09 00:25:34;;;;;;;28.65;21.45;;;;;;;16.86;78.67;101181.47;5062596;28;20068;-62
2021/09/09 00:27:59;;;;;;;27.45;22.52;;;;;;;16.85;78.52;101187.69;5061426;28;20060;-62
2021/09/09 00:30:25;;;;;;;32.08;23.13;;;;;;;16.88;78.38;101186.72;5061743;28;20053;-62
2021/09/09 00:32:51;;;;;;;29.05;22.33;;;;;;;16.89;78.31;101185.84;5062001;28;20036;-62
2021/09/09 00:35:16;;;;;;;31.08;21.83;;;;;;;16.88;78.13;101184.06;5061668;28;20036;-63
2021/09/09 00:37:42;;;;;;;28.95;21.42;;;;;;;16.87;78.21;101180.56;5062366;28;20033;-62
2021/09/09 00:40:09;;;;;;;28.48;21.40;;;;;;;16.84;78.51;101179.75;5059499;28;20045;-62
2021/09/09 00:42:34;;;;;;;30.00;19.42;;;;;;;16.85;78.30;101173.56;5062441;28;20044;-62
2021/09/09 00:44:59;;;;;;;29.88;22.33;;;;;;;16.86;77.43;101162.91;5061941;28;20090;-62
2021/09/09 00:47:25;;;;;;;25.65;18.77;;;;;;;16.87;78.10;101172.59;5060962;28;20056;-62
2021/09/09 00:49:50;;;;;;;30.38;21.45;;;;;;;16.93;77.62;101171.59;5061643;28;20033;-62
2021/09/09 00:52:15;;;;;;;27.30;21.58;;;;;;;16.91;77.32;101173.41;5062100;28;20025;-61
2021/09/09 00:54:45;;;;;;;27.17;20.27;;;;;;;16.92;77.83;101172.50;5061765;28;20108;-62
2021/09/09 00:57:14;;;;;;;25.88;19.80;;;;;;;16.91;77.29;101162.78;5062546;28;20055;-62
2021/09/09 00:59:39;;;;;;;28.15;21.58;;;;;;;16.91;77.57;101152.16;5062071;28;20079;-61
2021/09/09 01:02:05;;;;;;;30.50;21.30;;;;;;;16.95;77.03;101153.84;5061718;28;20037;-62
2021/09/09 01:04:31;;;;;;;26.52;20.58;;;;;;;16.96;77.42;101152.94;5059223;28;20021;-62
2021/09/09 01:06:58;;;;;;;29.58;21.13;;;;;;;16.91;77.18;101147.72;5061970;28;20428;-62
2021/09/09 01:09:24;;;;;;;27.58;21.45;;;;;;;16.88;77.58;101150.47;5060167;28;20524;-63
2021/09/09 01:11:49;;;;;;;28.23;20.63;;;;;;;16.85;77.68;101141.69;5061895;28;20037;-60
2021/09/09 01:14:16;;;;;;;30.02;21.52;;;;;;;16.82;77.42;101142.63;5062362;28;20064;-62
2021/09/09 01:16:44;;;;;;;30.55;22.17;;;;;;;16.79;77.30;101137.38;5061085;28;20041;-62
2021/09/09 01:19:11;;;;;;;28.88;20.00;;;;;;;16.80;77.79;101141.75;5063563;28;20514;-62
2021/09/09 01:21:36;;;;;;;31.63;21.20;;;;;;;16.84;77.29;101134.63;5065473;28;20040;-62
2021/09/09 01:24:23;;;;;;;29.35;21.52;;;;;;;16.82;77.09;101134.66;5066514;28;20033;-62
2021/09/09 01:26:51;;;;;;;28.42;21.73;;;;;;;16.79;77.31;101125.91;5065872;28;20045;-61
2021/09/09 01:29:17;;;;;;;29.63;22.27;;;;;;;16.76;77.63;101138.28;5065530;28;20102;-61
2021/09/09 01:31:43;;;;;;;30.95;21.63;;;;;;;16.74;77.99;101132.16;5064320;28;20481;-62
2021/09/09 01:34:08;;;;;;;31.17;22.38;;;;;;;16.68;77.85;101128.78;5065677;28;20051;-61
2021/09/09 01:36:34;;;;;;;29.50;21.17;;;;;;;16.65;77.91;101126.19;5064757;28;20025;-62
2021/09/09 01:39:00;;;;;;;31.40;22.48;;;;;;;16.62;78.53;101123.63;5065244;28;20045;-61
2021/09/09 01:41:25;;;;;;;30.70;21.75;;;;;;;16.58;78.32;101130.78;5065111;28;20094;-61
2021/09/09 01:43:50;;;;;;;31.13;22.67;;;;;;;16.56;78.45;101133.44;5065588;28;20033;-62
2021/09/09 01:46:16;;;;;;;30.77;22.80;;;;;;;16.53;78.38;101132.66;5065442;28;20048;-62
2021/09/09 01:48:42;;;;;;;32.80;22.67;;;;;;;16.49;78.68;101133.63;5065716;28;20111;-63
2021/09/09 01:51:07;;;;;;;32.38;23.42;;;;;;;16.44;78.80;101141.66;5065077;28;20060;-61
2021/09/09 01:53:32;;;;;;;30.48;22.40;;;;;;;16.40;78.46;101137.34;5065362;28;20075;-62
2021/09/09 01:55:58;;;;;;;31.55;23.65;;;;;;;16.36;78.45;101136.53;5063960;28;20041;-63
2021/09/09 01:58:23;;;;;;;34.83;22.40;;;;;;;16.36;78.49;101130.34;5065612;28;20056;-63
2021/09/09 02:00:48;;;;;;;32.13;22.77;;;;;;;16.33;78.57;101128.66;5064813;28;20111;-61
2021/09/09 02:03:14;;;;;;;28.73;22.85;;;;;;;16.32;78.70;101131.31;5065677;28;20036;-62
2021/09/09 02:05:39;;;;;;;31.20;23.35;;;;;;;16.27;78.45;101122.59;5061098;28;20096;-61
2021/09/09 02:08:05;;;;;;;31.48;23.67;;;;;;;16.25;79.12;101125.25;5065303;28;20170;-61
2021/09/09 02:10:30;;;;;;;33.00;24.27;;;;;;;16.22;79.18;101125.34;5055950;28;20064;-61
2021/09/09 02:12:55;;;;;;;31.45;23.17;;;;;;;16.17;79.38;101125.41;5064094;28;20076;-64
2021/09/09 02:15:21;;;;;;;34.90;23.88;;;;;;;16.16;79.51;101120.16;5065581;28;20033;-62
2021/09/09 02:17:46;;;;;;;30.42;23.05;;;;;;;16.13;79.28;101125.53;5065492;28;20048;-62
2021/09/09 02:20:13;;;;;;;33.33;23.38;;;;;;;16.13;79.33;101130.84;5064605;28;20037;-62
2021/09/09 02:22:39;;;;;;;35.10;24.73;;;;;;;16.12;79.22;101135.28;5065598;28;20090;-62
2021/09/09 02:25:05;;;;;;;33.88;24.40;;;;;;;16.11;79.41;101128.22;5064491;28;20029;-61
2021/09/09 02:27:30;;;;;;;33.90;25.55;;;;;;;16.08;79.32;101125.59;5064736;28;20035;-61
2021/09/09 02:29:55;;;;;;;33.72;24.23;;;;;;;16.07;79.40;101128.31;5063404;28;20140;-61
2021/09/09 02:32:21;;;;;;;35.03;24.63;;;;;;;16.06;79.41;101129.19;5064411;28;20040;-61
2021/09/09 02:34:46;;;;;;;37.80;24.45;;;;;;;16.07;79.60;101129.19;5064413;28;20024;-61
2021/09/09 02:37:11;;;;;;;34.50;24.25;;;;;;;16.05;79.58;101125.69;5064987;28;20035;-62
2021/09/09 02:39:40;;;;;;;37.42;25.50;;;;;;;16.03;79.93;101130.16;5062864;28;20033;-61
2021/09/09 02:42:06;;;;;;;34.50;25.83;;;;;;;16.01;79.88;101120.47;5063907;28;20036;-62
2021/09/09 02:44:31;;;;;;;38.63;26.20;;;;;;;16.00;79.80;101118.72;5064180;28;20056;-62
2021/09/09 02:46:57;;;;;;;35.22;25.48;;;;;;;15.97;79.86;101115.25;5064720;28;20071;-61
2021/09/09 02:49:22;;;;;;;37.05;25.67;;;;;;;15.98;79.83;101113.44;5061172;28;20063;-62
2021/09/09 02:51:47;;;;;;;35.95;26.52;;;;;;;15.96;79.99;101110.81;5064113;28;20097;-61
2021/09/09 02:54:13;;;;;;;35.75;26.98;;;;;;;15.98;79.94;101109.03;5064472;28;20025;-61
2021/09/09 02:56:38;;;;;;;37.42;26.50;;;;;;;15.97;79.81;101104.63;5064703;28;20029;-61
2021/09/09 02:59:03;;;;;;;35.70;26.45;;;;;;;15.96;79.84;101113.47;5064060;28;20033;-61
2021/09/09 03:01:29;;;;;;;38.35;26.65;;;;;;;15.96;79.77;101102.88;5063943;28;20178;-62
2021/09/09 03:03:54;;;;;;;38.13;26.38;;;;;;;15.95;79.98;101101.16;5064077;28;20427;-61
2021/09/09 03:06:20;;;;;;;42.63;27.20;;;;;;;15.92;79.89;101097.69;5064651;28;20041;-61
2021/09/09 03:08:45;;;;;;;38.88;27.13;;;;;;;15.91;79.64;101102.09;5063614;28;20088;-62
2021/09/09 03:11:10;;;;;;;39.60;26.52;;;;;;;15.92;80.10;101095.03;5063289;28;20105;-62
2021/09/09 03:13:36;;;;;;;35.63;26.65;;;;;;;15.90;79.68;101091.53;5064513;28;20049;-61
2021/09/09 03:16:01;;;;;;;39.78;27.30;;;;;;;15.89;79.68;101090.66;5063885;28;20059;-62
2021/09/09 03:18:26;;;;;;;37.33;27.75;;;;;;;15.90;79.73;101091.53;5064781;28;20044;-61
2021/09/09 03:20:52;;;;;;;37.63;26.30;;;;;;;15.89;79.45;101088.00;5063563;28;20060;-62
2021/09/09 03:23:19;;;;;;;37.65;26.27;;;;;;;15.88;79.79;101086.28;5063700;28;20025;-60
2021/09/09 03:25:44;;;;;;;38.60;26.52;;;;;;;15.86;79.63;101081.88;5063337;28;20033;-61
2021/09/09 03:28:10;;;;;;;36.85;27.17;;;;;;;15.85;80.00;101083.66;5063016;28;20044;-62
2021/09/09 03:30:35;;;;;;;38.72;27.77;;;;;;;15.82;79.67;101081.06;5062351;28;20158;-62
2021/09/09 03:33:01;;;;;;;39.50;27.33;;;;;;;15.82;79.78;101089.00;5063346;28;20024;-61
2021/09/09 03:35:26;;;;;;;37.38;26.75;;;;;;;15.85;79.91;101096.06;5063453;28;20047;-61
2021/09/09 03:37:51;;;;;;;39.80;28.75;;;;;;;15.84;79.74;101095.19;5059705;28;20029;-62
2021/09/09 03:40:17;;;;;;;40.92;28.33;;;;;;;15.82;79.79;101094.31;5060149;28;20029;-61
2021/09/09 03:42:42;;;;;;;38.90;27.58;;;;;;;15.84;79.71;101095.19;5062228;28;20029;-62
2021/09/09 03:45:08;;;;;;;41.67;27.50;;;;;;;15.83;79.62;101088.13;5064035;28;20036;-62
2021/09/09 03:47:33;;;;;;;42.53;27.85;;;;;;;15.81;79.66;101086.41;5063452;28;20040;-61
2021/09/09 03:49:59;;;;;;;40.28;28.33;;;;;;;15.78;79.49;101087.34;5062216;28;20079;-61
2021/09/09 03:52:24;;;;;;;41.92;28.10;;;;;;;15.77;79.79;101077.66;5062244;28;20116;-62
2021/09/09 03:54:50;;;;;;;42.95;28.45;;;;;;;15.74;79.54;101081.22;5062435;28;20088;-61
2021/09/09 03:57:15;;;;;;;42.78;28.35;;;;;;;15.70;79.74;101078.63;5063700;28;20391;-62
2021/09/09 03:59:41;;;;;;;43.55;28.77;;;;;;;15.71;79.84;101080.41;5061278;28;20039;-61
2021/09/09 04:02:06;;;;;;;41.25;28.08;;;;;;;15.68;80.29;101083.09;5062173;28;20033;-62
2021/09/09 04:04:32;;;;;;;39.38;27.35;;;;;;;15.68;80.07;101081.31;5063085;28;20037;-62
2021/09/09 04:06:57;;;;;;;41.15;28.00;;;;;;;15.71;79.45;101075.97;5063342;28;20453;-61
2021/09/09 04:09:23;;;;;;;42.25;30.27;;;;;;;15.70;79.44;101079.50;5059844;28;20255;-61
2021/09/09 04:11:48;;;;;;;47.95;30.02;;;;;;;15.69;79.70;101076.88;5062328;28;20092;-62
2021/09/09 04:14:13;;;;;;;43.30;28.85;;;;;;;15.66;80.15;101080.47;5062430;28;20067;-62
2021/09/09 04:16:39;;;;;;;42.00;29.60;;;;;;;15.71;79.50;101075.09;5061468;28;20041;-62
2021/09/09 04:19:04;;;;;;;42.85;29.27;;;;;;;15.70;79.44;101068.91;5062489;28;20021;-61
2021/09/09 04:21:30;;;;;;;40.05;28.77;;;;;;;15.67;79.86;101070.72;5063120;28;20032;-61
2021/09/09 04:23:55;;;;;;;39.95;28.50;;;;;;;15.65;80.04;101072.53;5062039;28;20089;-61
2021/09/09 04:26:20;;;;;;;40.88;29.17;;;;;;;15.67;79.61;101068.97;5061871;28;20041;-61
2021/09/09 04:28:46;;;;;;;40.78;28.38;;;;;;;15.67;79.79;101065.44;5062098;28;20025;-62
2021/09/09 04:31:11;;;;;;;43.60;29.40;;;;;;;15.64;79.56;101057.56;5062603;28;20087;-61
2021/09/09 04:33:37;;;;;;;39.15;28.50;;;;;;;15.64;79.65;101052.28;5063354;28;20029;-61
2021/09/09 04:36:02;;;;;;;42.97;28.88;;;;;;;15.64;79.74;101050.50;5062729;28;20057;-61
2021/09/09 04:38:28;;;;;;;44.08;28.67;;;;;;;15.59;79.71;101034.69;5061652;28;20029;-61
2021/09/09 04:40:53;;;;;;;47.78;29.98;;;;;;;15.57;79.83;101033.81;5061004;28;20068;-62
2021/09/09 04:43:18;;;;;;;43.58;29.30;;;;;;;15.56;80.22;101031.22;5061212;28;20059;-62
2021/09/09 04:45:44;;;;;;;42.60;30.35;;;;;;;15.53;80.28;101029.50;5063831;28;20036;-61
2021/09/09 04:48:09;;;;;;;41.20;28.55;;;;;;;15.57;80.00;101032.97;5061864;28;20048;-61
2021/09/09 04:50:34;;;;;;;42.50;29.45;;;;;;;15.63;79.57;101029.31;5061528;28;20029;-62
2021/09/09 04:53:00;;;;;;;43.55;30.80;;;;;;;15.66;79.63;101023.97;5062236;28;20039;-62
2021/09/09 04:55:25;;;;;;;42.95;29.40;;;;;;;15.66;79.92;101023.97;5065980;28;20031;-61
2021/09/09 04:57:50;;;;;;;41.13;29.55;;;;;;;15.67;79.46;101026.59;5066971;28;20071;-62
2021/09/09 05:00:16;;;;;;;46.42;28.98;;;;;;;15.67;79.47;101020.41;5066178;28;20040;-61
2021/09/09 05:02:41;;;;;;;42.40;29.48;;;;;;;15.67;79.63;101025.69;5065359;28;20091;-61
2021/09/09 05:05:07;;;;;;;43.60;29.92;;;;;;;15.66;79.51;101029.28;5066906;28;20079;-62
2021/09/09 05:07:34;;;;;;;40.20;29.30;;;;;;;15.66;79.62;101024.84;5066549;28;20029;-61
2021/09/09 05:10:00;;;;;;;45.67;30.10;;;;;;;15.68;79.72;101019.53;5065646;28;20033;-61
2021/09/09 05:12:25;;;;;;;42.15;29.10;;;;;;;15.68;78.91;101020.38;5066385;28;20094;-61
2021/09/09 05:14:51;;;;;;;39.67;29.33;;;;;;;15.74;78.66;101022.94;5065661;28;20033;-61
2021/09/09 05:17:16;;;;;;;41.45;29.35;;;;;;;15.75;79.01;101026.47;5066040;28;20040;-62
2021/09/09 05:19:41;;;;;;;40.92;28.98;;;;;;;15.74;78.92;101020.28;5065868;28;20025;-63
2021/09/09 05:22:07;;;;;;;39.80;28.33;;;;;;;15.77;78.50;101036.13;5066712;28;20029;-61
2021/09/09 05:24:32;;;;;;;42.33;28.73;;;;;;;15.82;78.53;101032.50;5065077;28;20041;-62
2021/09/09 05:26:57;;;;;;;41.17;29.08;;;;;;;15.86;78.64;101034.19;5065418;28;20028;-61
2021/09/09 05:29:23;;;;;;;42.05;28.42;;;;;;;15.88;78.10;101035.91;5065110;28;20134;-63
2021/09/09 05:31:48;;;;;;;40.20;28.35;;;;;;;15.90;77.56;101036.75;5065828;28;20040;-62
2021/09/09 05:34:14;;;;;;;42.45;28.63;;;;;;;15.94;77.01;101030.47;5065480;28;20037;-61
2021/09/09 05:36:39;;;;;;;40.15;28.13;;;;;;;15.99;76.95;101027.72;5066000;28;20044;-62
2021/09/09 05:39:05;;;;;;;38.17;26.92;;;;;;;16.05;76.34;101022.31;5064747;28;20421;-62
2021/09/09 05:41:31;;;;;;;38.10;28.05;;;;;;;16.11;76.49;101016.88;5064473;28;20032;-62
2021/09/09 05:43:56;;;;;;;37.35;27.27;;;;;;;16.13;77.09;101015.06;5065246;28;20032;-61
2021/09/09 05:46:21;;;;;;;38.95;25.95;;;;;;;16.16;75.82;101007.06;5065420;28;20029;-62
2021/09/09 05:48:47;;;;;;;36.83;26.67;;;;;;;16.20;76.80;101004.31;5064613;28;20037;-62
2021/09/09 05:51:12;;;;;;;46.53;27.33;;;;;;;16.22;76.46;101011.34;5065752;28;20033;-62
2021/09/09 05:53:37;;;;;;;38.53;26.52;;;;;;;16.27;76.17;101012.09;5063760;28;20047;-62
2021/09/09 05:56:03;;;;;;;37.60;27.63;;;;;;;16.32;75.38;101018.16;5064416;28;20037;-61
2021/09/09 05:58:28;;;;;;;39.58;28.40;;;;;;;16.36;75.80;101021.63;5064910;28;20123;-61
2021/09/09 06:00:54;;;;;;;40.03;27.17;;;;;;;16.42;75.53;101017.97;5065380;28;20025;-63
2021/09/09 06:03:24;;;;;;;39.28;27.40;;;;;;;16.45;75.39;101020.56;5064839;28;20697;-62
2021/09/09 06:05:49;;;;;;;38.92;26.83;;;;;;;16.49;74.43;101017.78;5064192;28;20033;-62
2021/09/09 06:08:15;;;;;;;38.13;26.00;;;;;;;16.54;74.24;101012.34;5064992;28;20032;-61
2021/09/09 06:10:40;;;;;;;41.88;27.08;;;;;;;16.60;73.92;101012.22;5062705;28;20059;-60
2021/09/09 06:13:06;;;;;;;37.85;25.73;;;;;;;16.66;73.73;101004.13;5064366;28;20141;-62
2021/09/09 06:15:31;;;;;;;36.03;26.63;;;;;;;16.71;73.42;100996.94;5065056;28;20056;-62
2021/09/09 06:17:56;;;;;;;38.83;26.05;;;;;;;16.79;73.07;101001.19;5064323;28;20090;-62
2021/09/09 06:20:22;;;;;;;35.15;26.58;;;;;;;16.84;73.08;101008.16;5064470;28;20033;-62
2021/09/09 06:22:47;;;;;;;33.08;25.35;;;;;;;16.95;72.24;101010.50;5065069;28;20056;-61
2021/09/09 06:25:12;;;;;;;35.05;25.02;;;;;;;17.00;72.53;101019.25;5060719;28;20926;-63
2021/09/09 06:27:38;;;;;;;39.72;25.90;;;;;;;17.06;72.08;101010.25;5062452;28;20045;-61
2021/09/09 06:30:04;;;;;;;35.65;25.70;;;;;;;17.13;72.35;101006.53;5064104;28;20128;-61
2021/09/09 06:32:29;;;;;;;32.58;25.23;;;;;;;17.19;71.55;101006.34;5062200;28;20519;-61
2021/09/09 06:34:54;;;;;;;33.63;25.63;;;;;;;17.28;71.12;101008.75;5064355;28;20048;-62
2021/09/09 06:37:21;;;;;;;36.33;24.98;;;;;;;17.41;70.73;101014.63;5063284;28;20036;-62
2021/09/09 06:39:47;;;;;;;37.22;25.45;;;;;;;17.50;70.52;101008.16;5062364;28;20067;-63
2021/09/09 06:42:12;;;;;;;32.75;23.00;;;;;;;17.64;71.15;101008.66;5058883;28;20031;-62
2021/09/09 06:44:38;;;;;;;37.50;25.42;;;;;;;17.82;70.01;101020.53;5060914;28;20096;-62
2021/09/09 06:47:03;;;;;;;34.85;23.92;;;;;;;18.02;69.65;101045.72;5061969;28;20056;-62
2021/09/09 06:49:29;;;;;;;37.03;24.73;;;;;;;18.14;68.99;101055.97;5063523;28;20040;-62
2021/09/09 06:51:54;;;;;;;36.30;24.63;;;;;;;18.27;69.17;101060.00;5060230;28;20053;-62
2021/09/09 06:54:19;;;;;;;33.25;25.08;;;;;;;18.29;68.82;101054.66;5057479;28;20030;-62
2021/09/09 06:56:45;;;;;;;40.45;24.10;;;;;;;18.35;69.25;101045.63;5060211;28;20036;-62
2021/09/09 06:59:10;;;;;;;35.97;25.52;;;;;;;18.40;68.89;101049.88;5058114;28;20029;-62
2021/09/09 07:01:35;;;;;;;32.90;24.50;;;;;;;18.51;69.24;101050.41;5061451;28;20040;-62
2021/09/09 07:04:01;;;;;;;33.33;24.73;;;;;;;18.66;69.84;101043.72;5055136;28;20041;-63
2021/09/09 07:06:26;;;;;;;33.47;23.90;;;;;;;18.86;68.65;101047.56;5056706;28;20095;-62
2021/09/09 07:08:52;;;;;;;29.60;22.80;;;;;;;19.03;67.98;101042.53;5052989;28;20037;-62
2021/09/09 07:11:17;;;;;;;32.08;23.02;;;;;;;19.20;67.46;101043.78;5062171;28;20025;-62
2021/09/09 07:13:43;;;;;;;28.10;20.30;;;;;;;19.41;67.18;101034.16;5061016;28;20128;-61
2021/09/09 07:16:08;;;;;;;31.92;22.35;;;;;;;19.60;66.12;101034.38;5059881;28;20032;-62
2021/09/09 07:18:34;;;;;;;26.75;21.02;;;;;;;19.75;65.00;101028.50;5063172;28;20106;-65
2021/09/09 07:21:00;;;;;;;27.77;20.30;;;;;;;19.93;64.77;101028.75;5059590;28;20075;-62
2021/09/09 07:23:26;;;;;;;27.70;20.10;;;;;;;20.10;64.23;101028.13;5062334;28;20037;-62
2021/09/09 07:25:51;;;;;;;27.83;19.35;;;;;;;20.21;64.17;101021.44;5061076;28;20040;-62
2021/09/09 07:28:17;;;;;;;27.58;19.67;;;;;;;20.29;63.28;101007.78;5063480;28;20029;-62
2021/09/09 07:30:43;;;;;;;26.83;19.33;;;;;;;20.42;63.49;101014.38;5063600;28;20033;-62
2021/09/09 07:33:09;;;;;;;28.25;19.83;;;;;;;20.58;62.46;101009.28;5062104;28;20033;-62
2021/09/09 07:35:35;;;;;;;24.90;17.65;;;;;;;20.72;62.23;101018.56;5063388;28;20093;-62
2021/09/09 07:38:00;;;;;;;26.65;18.23;;;;;;;20.86;62.17;101026.00;5064064;28;20037;-64
2021/09/09 07:40:26;;;;;;;29.38;19.88;;;;;;;20.91;62.68;101016.88;5060594;28;20070;-62
2021/09/09 07:42:52;;;;;;;23.40;18.17;;;;;;;21.00;62.25;101020.94;5064270;28;20038;-61
2021/09/09 07:45:17;;;;;;;25.13;16.25;;;;;;;21.09;60.71;101028.56;5058608;28;20178;-63
2021/09/09 07:47:43;;;;;;;23.15;17.95;;;;;;;21.04;61.11;101025.25;5060843;28;20036;-62
2021/09/09 07:50:10;;;;;;;24.05;17.70;;;;;;;21.05;61.91;101024.28;5059047;28;20610;-63
2021/09/09 07:52:36;;;;;;;24.42;17.65;;;;;;;21.13;61.96;101034.66;5060030;28;20032;-63
2021/09/09 07:55:03;;;;;;;21.40;16.90;;;;;;;21.26;61.54;101035.84;5060758;28;20637;-63
2021/09/09 07:57:28;;;;;;;24.77;17.52;;;;;;;21.45;60.87;101043.13;5062884;28;20029;-63
2021/09/09 07:59:53;;;;;;;22.65;16.55;;;;;;;21.52;60.80;101040.09;5063530;28;20043;-62
2021/09/09 08:02:19;;;;;;;23.55;17.67;;;;;;;21.60;59.56;101042.44;5062337;28;20040;-63
2021/09/09 08:04:44;;;;;;;23.40;16.60;;;;;;;21.66;59.46;101047.50;5062850;28;20423;-63
2021/09/09 08:07:09;;;;;;;26.23;18.45;;;;;;;21.67;59.05;101033.22;5061834;28;20037;-63
2021/09/09 08:09:35;;;;;;;21.45;16.95;;;;;;;21.67;59.39;101035.03;5060098;28;20028;-64
2021/09/09 08:12:01;;;;;;;24.75;19.30;;;;;;;21.57;60.14;101032.75;5058534;28;20061;-64
2021/09/09 08:14:28;;;;;;;29.40;19.30;;;;;;;21.49;60.21;101052.72;5058450;28;20070;-64
2021/09/09 08:16:53;;;;;;;24.88;18.73;;;;;;;21.40;60.75;101052.19;5063671;28;20036;-65
2021/09/09 08:19:19;;;;;;;33.85;20.20;;;;;;;21.31;61.75;101043.69;5063964;28;20033;-64
2021/09/09 08:21:44;;;;;;;28.60;21.25;;;;;;;21.28;61.39;101057.19;5059820;28;20036;-65
2021/09/09 08:24:10;;;;;;;24.33;17.73;;;;;;;21.30;61.81;101055.31;5058519;28;20052;-64
2021/09/09 08:26:35;;;;;;;25.42;19.60;;;;;;;21.26;62.14;101057.25;5058408;28;20029;-65
2021/09/09 08:29:01;;;;;;;30.40;19.70;;;;;;;21.22;62.00;101050.28;5062388;28;20051;-64
2021/09/09 08:31:27;;;;;;;25.85;19.58;;;;;;;21.18;62.62;101062.06;5062344;28;20025;-64
2021/09/09 08:33:54;;;;;;;29.08;19.45;;;;;;;21.18;62.86;101043.34;5059855;28;20025;-64
2021/09/09 08:36:21;;;;;;;34.30;20.63;;;;;;;21.25;62.51;101047.50;5062384;28;20044;-65
2021/09/09 08:38:47;;;;;;;43.67;20.92;;;;;;;21.34;61.81;101044.44;5060910;28;20026;-64
2021/09/09 08:41:12;;;;;;;31.33;18.58;;;;;;;21.53;62.19;101047.19;5063539;28;20025;-65
2021/09/09 08:43:38;;;;;;;30.58;19.60;;;;;;;21.75;61.49;101051.56;5061097;28;20021;-66
2021/09/09 08:46:04;;;;;;;23.92;18.42;;;;;;;21.98;60.85;101047.84;5062827;28;20124;-64
2021/09/09 08:48:30;;;;;;;65.32;23.08;;;;;;;22.20;60.57;101047.72;5063544;28;20370;-65
2021/09/09 08:50:57;;;;;;;28.58;19.90;;;;;;;22.28;59.12;101050.94;5057576;28;20017;-65
2021/09/09 08:53:23;;;;;;;23.77;18.52;;;;;;;22.28;59.74;101056.28;5063117;28;20029;-65
2021/09/09 08:55:49;;;;;;;23.50;19.98;;;;;;;22.24;60.22;101053.81;5061525;28;20482;-64
2021/09/09 08:58:15;;;;;;;28.45;21.25;;;;;;;22.23;60.59;101058.31;5061186;28;20444;-63
2021/09/09 09:01:03;;;;;;;27.83;20.10;;;;;;;22.25;61.09;101055.53;5062116;28;20067;-65
2021/09/09 09:03:51;;;;;;;26.02;19.95;;;;;;;22.34;60.07;101053.34;5062354;28;20029;-65
2021/09/09 09:06:25;;;;;;;50.30;20.10;;;;;;;22.45;60.44;101052.81;5059660;28;20130;-65
2021/09/09 09:08:54;;;;;;;50.60;21.73;;;;;;;22.53;60.55;101055.13;5060925;28;20060;-66
2021/09/09 09:11:41;;;;;;;31.77;18.77;;;;;;;22.69;60.40;101064.16;5058315;28;20036;-65
2021/09/09 09:14:09;;;;;;;28.30;20.27;;;;;;;22.77;60.61;101063.78;5062026;28;20101;-65
2021/09/09 09:16:35;;;;;;;32.28;20.55;;;;;;;22.85;60.33;101066.94;5057550;28;20048;-65
2021/09/09 09:19:01;;;;;;;29.65;20.40;;;;;;;22.90;60.22;101064.91;5055384;28;20040;-67
2021/09/09 09:21:33;;;;;;;26.90;20.27;;;;;;;22.92;60.79;101059.47;5059926;28;20140;-65
2021/09/09 09:24:00;;;;;;;26.75;20.50;;;;;;;23.00;60.42;101059.94;5056710;28;20024;-65
2021/09/09 09:26:26;;;;;;;30.10;21.40;;;;;;;23.03;59.92;101058.94;5059468;28;20037;-65
2021/09/09 09:28:57;;;;;;;25.80;20.02;;;;;;;23.08;60.96;101067.63;5060557;28;20096;-65
2021/09/09 09:31:26;;;;;;;28.30;19.77;;;;;;;23.12;60.51;101069.22;5058583;28;20488;-65
2021/09/09 09:33:55;;;;;;;27.98;19.95;;;;;;;23.21;60.23;101060.69;5062824;28;20052;-65
2021/09/09 09:36:28;;;;;;;27.52;19.75;;;;;;;23.23;60.70;101071.34;5062071;28;20033;-65
2021/09/09 09:38:56;;;;;;;26.42;20.58;;;;;;;23.32;61.11;101070.88;5061646;28;20346;-65
2021/09/09 09:41:24;;;;;;;27.73;18.00;;;;;;;23.45;61.48;101060.38;5060716;28;20059;-65
2021/09/09 09:43:56;;;;;;;23.23;18.13;;;;;;;23.56;61.37;101068.75;5066744;28;20048;-65
2021/09/09 09:46:25;;;;;;;21.73;16.65;;;;;;;23.80;60.05;101063.03;5066473;28;20029;-65
2021/09/09 09:48:51;;;;;;;26.80;20.27;;;;;;;23.75;59.84;101064.13;5067034;28;20021;-65
2021/09/09 09:51:38;;;;;;;23.73;18.00;;;;;;;23.68;60.74;101065.38;5063594;28;20115;-65
2021/09/09 09:54:12;;;;;;;25.67;18.40;;;;;;;23.77;60.51;101065.88;5066416;28;20294;-66
2021/09/09 09:56:40;;;;;;;24.55;16.42;;;;;;;23.80;61.23;101057.66;5065241;28;20499;-65
2021/09/09 09:59:05;;;;;;;20.90;15.07;;;;;;;23.86;61.32;101054.69;5066124;28;20025;-66
2021/09/09 10:01:32;;;;;;;22.35;16.73;;;;;;;23.97;61.36;101063.03;5066226;28;20116;-66
2021/09/09 10:04:02;;;;;;;21.77;15.95;;;;;;;23.91;61.42;101056.16;5066225;28;20028;-66
2021/09/09 10:06:30;;;;;;;25.83;16.63;;;;;;;23.92;61.73;101055.19;5062210;28;20070;-66
2021/09/09 10:08:56;;;;;;;17.40;12.45;;;;;;;24.02;61.36;101055.56;5064077;28;20084;-66
2021/09/09 10:11:21;;;;;;;18.50;12.70;;;;;;;24.07;61.04;101058.88;5066274;28;20029;-66
2021/09/09 10:13:48;;;;;;;21.55;13.90;;;;;;;24.16;60.10;101053.94;5064645;28;20087;-65
2021/09/09 10:16:16;;;;;;;15.70;10.77;;;;;;;24.19;59.65;101056.47;5065218;28;20488;-66
2021/09/09 10:18:42;;;;;;;22.52;15.15;;;;;;;24.15;60.74;101049.53;5063129;28;20028;-65
2021/09/09 10:21:08;;;;;;;22.52;13.88;;;;;;;24.15;60.44;101049.53;5064759;28;20039;-65
2021/09/09 10:23:34;;;;;;;20.75;13.52;;;;;;;24.20;60.64;101048.31;5063708;28;20053;-65
2021/09/09 10:25:59;;;;;;;18.90;12.95;;;;;;;24.25;61.04;101053.41;5065258;28;20029;-66
2021/09/09 10:28:38;;;;;;;20.15;13.60;;;;;;;24.33;60.77;101052.06;5058912;28;20025;-66
2021/09/09 10:31:12;;;;;;;19.35;12.95;;;;;;;24.31;61.26;101055.78;5063494;28;20295;-65
2021/09/09 10:33:42;;;;;;;19.08;12.52;;;;;;;24.34;61.30;101055.59;5063417;28;20025;-66
2021/09/09 10:36:40;;;;;;;25.33;15.90;;;;;;;24.39;61.12;101053.53;5062692;28;20025;-65
2021/09/09 10:39:11;;;;;;;21.10;15.10;;;;;;;24.44;61.77;101056.84;5063978;28;20045;-66
2021/09/09 10:41:36;;;;;;;25.33;18.15;;;;;;;24.43;60.75;101060.47;5061466;28;20465;-66
2021/09/09 10:44:05;;;;;;;23.80;16.58;;;;;;;24.41;60.07;101062.38;5064682;28;20029;-66
2021/09/09 10:46:39;;;;;;;25.63;16.48;;;;;;;24.40;58.91;101063.31;5065031;28;20021;-66
2021/09/09 10:49:17;;;;;;;26.88;17.60;;;;;;;24.39;59.10;101063.41;5064735;28;20067;-67
2021/09/09 10:52:10;;;;;;;22.65;14.57;;;;;;;24.44;58.70;101056.84;5059442;28;20088;-67
2021/09/09 10:55:03;;;;;;;21.80;13.98;;;;;;;24.56;57.85;101055.28;5060695;28;20099;-66
2021/09/09 10:57:28;;;;;;;20.00;13.52;;;;;;;24.47;57.94;101059.31;5061907;28;20013;-66
2021/09/09 10:59:54;;;;;;;21.92;13.13;;;;;;;24.46;57.81;101064.78;5061052;28;20417;-67
2021/09/09 11:02:19;;;;;;;20.80;13.05;;;;;;;24.30;58.89;101059.41;5064680;28;20025;-67
2021/09/09 11:04:48;;;;;;;23.80;13.35;;;;;;;24.26;59.42;101058.72;5062576;28;20045;-67
2021/09/09 11:07:21;;;;;;;20.02;13.95;;;;;;;24.25;58.85;101062.38;5064540;28;20025;-68